Terminal Aerodrome Forecast
Issued by NWS

Home | Current Version | Previous Version | Text Only | Print | Product List | Glossary On
Versions: 1 2 3 4 5 6 7 8 9 10 11 12 13 14
000
FTUS45 KREV 190520
TAFTRK
TAF
KTRK 190520Z 1906/2006 32007KT P6SM VCSH BKN035 OVC045
     FM191000 VRB04KT 5SM -SHSN BKN015 OVC025
     FM191500 33009KT P6SM VCSH SCT030 BKN040
     FM200100 VRB03KT P6SM VCSH BKN040=

USA.gov is the U.S. government's official web portal to all federal, state and local government web resources and services.